sensor_id;sensor_type;location;lat;lon;timestamp;P1;durP1;ratioP1;P2;durP2;ratioP2
63536;SDS011;49686;51.880;5.632;2023-05-14T00:02:14;16.27;;;11.00;;
63536;SDS011;49686;51.880;5.632;2023-05-14T00:04:41;14.68;;;11.50;;
63536;SDS011;49686;51.880;5.632;2023-05-14T00:07:08;16.58;;;11.70;;
63536;SDS011;49686;51.880;5.632;2023-05-14T00:09:35;13.02;;;11.52;;
63536;SDS011;49686;51.880;5.632;2023-05-14T00:12:04;13.02;;;11.63;;
63536;SDS011;49686;51.880;5.632;2023-05-14T00:14:31;16.20;;;12.02;;
63536;SDS011;49686;51.880;5.632;2023-05-14T00:16:59;12.77;;;11.18;;
63536;SDS011;49686;51.880;5.632;2023-05-14T00:19:26;14.75;;;11.93;;
63536;SDS011;49686;51.880;5.632;2023-05-14T00:21:53;16.23;;;11.57;;
63536;SDS011;49686;51.880;5.632;2023-05-14T00:24:22;12.25;;;10.95;;
63536;SDS011;49686;51.880;5.632;2023-05-14T00:26:51;13.23;;;11.55;;
63536;SDS011;49686;51.880;5.632;2023-05-14T00:29:21;17.95;;;11.60;;
63536;SDS011;49686;51.880;5.632;2023-05-14T00:31:48;17.42;;;13.10;;
63536;SDS011;49686;51.880;5.632;2023-05-14T00:34:16;17.85;;;12.43;;
63536;SDS011;49686;51.880;5.632;2023-05-14T00:36:45;15.05;;;12.70;;
63536;SDS011;49686;51.880;5.632;2023-05-14T00:39:13;13.82;;;12.38;;
63536;SDS011;49686;51.880;5.632;2023-05-14T00:41:42;13.50;;;11.82;;
63536;SDS011;49686;51.880;5.632;2023-05-14T00:46:35;14.15;;;11.65;;
63536;SDS011;49686;51.880;5.632;2023-05-14T00:49:02;17.83;;;12.95;;
63536;SDS011;49686;51.880;5.632;2023-05-14T00:51:30;16.23;;;12.52;;
63536;SDS011;49686;51.880;5.632;2023-05-14T00:53:57;15.10;;;12.57;;
63536;SDS011;49686;51.880;5.632;2023-05-14T00:56:24;13.48;;;11.32;;
63536;SDS011;49686;51.880;5.632;2023-05-14T00:58:52;17.15;;;12.30;;
63536;SDS011;49686;51.880;5.632;2023-05-14T01:01:22;17.42;;;13.38;;
63536;SDS011;49686;51.880;5.632;2023-05-14T01:03:49;16.13;;;12.30;;
63536;SDS011;49686;51.880;5.632;2023-05-14T01:06:17;17.63;;;13.00;;
63536;SDS011;49686;51.880;5.632;2023-05-14T01:08:58;15.82;;;13.45;;
63536;SDS011;49686;51.880;5.632;2023-05-14T01:11:40;19.08;;;13.48;;
63536;SDS011;49686;51.880;5.632;2023-05-14T01:14:17;15.80;;;13.20;;
63536;SDS011;49686;51.880;5.632;2023-05-14T01:16:47;16.77;;;13.07;;
63536;SDS011;49686;51.880;5.632;2023-05-14T01:19:20;15.23;;;12.73;;
63536;SDS011;49686;51.880;5.632;2023-05-14T01:21:52;16.50;;;12.48;;
63536;SDS011;49686;51.880;5.632;2023-05-14T01:24:19;17.37;;;13.27;;
63536;SDS011;49686;51.880;5.632;2023-05-14T01:26:46;14.05;;;11.80;;
63536;SDS011;49686;51.880;5.632;2023-05-14T01:29:14;17.13;;;11.73;;
63536;SDS011;49686;51.880;5.632;2023-05-14T01:31:45;18.95;;;12.80;;
63536;SDS011;49686;51.880;5.632;2023-05-14T01:36:44;14.80;;;11.57;;
63536;SDS011;49686;51.880;5.632;2023-05-14T01:39:15;16.73;;;12.57;;
63536;SDS011;49686;51.880;5.632;2023-05-14T01:44:12;12.10;;;10.82;;
63536;SDS011;49686;51.880;5.632;2023-05-14T01:46:39;16.08;;;12.90;;
63536;SDS011;49686;51.880;5.632;2023-05-14T01:49:07;18.30;;;13.33;;
63536;SDS011;49686;51.880;5.632;2023-05-14T01:51:34;19.40;;;14.30;;
63536;SDS011;49686;51.880;5.632;2023-05-14T01:54:04;16.23;;;14.13;;
63536;SDS011;49686;51.880;5.632;2023-05-14T01:56:32;15.80;;;13.60;;
63536;SDS011;49686;51.880;5.632;2023-05-14T01:59:02;17.47;;;13.60;;
63536;SDS011;49686;51.880;5.632;2023-05-14T02:01:29;19.58;;;13.73;;
63536;SDS011;49686;51.880;5.632;2023-05-14T02:03:56;16.25;;;13.15;;
63536;SDS011;49686;51.880;5.632;2023-05-14T02:06:23;15.98;;;12.85;;
63536;SDS011;49686;51.880;5.632;2023-05-14T02:08:50;14.85;;;11.13;;
63536;SDS011;49686;51.880;5.632;2023-05-14T02:11:16;16.67;;;13.65;;
63536;SDS011;49686;51.880;5.632;2023-05-14T02:13:47;18.65;;;14.00;;
63536;SDS011;49686;51.880;5.632;2023-05-14T02:16:14;18.57;;;14.47;;
63536;SDS011;49686;51.880;5.632;2023-05-14T02:18:41;15.98;;;12.60;;
63536;SDS011;49686;51.880;5.632;2023-05-14T02:21:08;19.27;;;14.85;;
63536;SDS011;49686;51.880;5.632;2023-05-14T02:23:35;19.90;;;14.80;;
63536;SDS011;49686;51.880;5.632;2023-05-14T02:26:07;16.80;;;13.30;;
63536;SDS011;49686;51.880;5.632;2023-05-14T02:28:34;21.42;;;14.13;;
63536;SDS011;49686;51.880;5.632;2023-05-14T02:31:02;18.05;;;14.60;;
63536;SDS011;49686;51.880;5.632;2023-05-14T02:33:29;18.48;;;14.45;;
63536;SDS011;49686;51.880;5.632;2023-05-14T02:35:59;21.13;;;15.15;;
63536;SDS011;49686;51.880;5.632;2023-05-14T02:38:26;20.95;;;15.23;;
63536;SDS011;49686;51.880;5.632;2023-05-14T02:40:53;21.48;;;15.48;;
63536;SDS011;49686;51.880;5.632;2023-05-14T02:43:21;21.27;;;15.68;;
63536;SDS011;49686;51.880;5.632;2023-05-14T02:45:50;23.00;;;15.20;;
63536;SDS011;49686;51.880;5.632;2023-05-14T02:48:21;19.77;;;15.07;;
63536;SDS011;49686;51.880;5.632;2023-05-14T02:50:48;18.30;;;13.67;;
63536;SDS011;49686;51.880;5.632;2023-05-14T02:53:21;21.15;;;14.57;;
63536;SDS011;49686;51.880;5.632;2023-05-14T02:55:47;22.67;;;15.75;;
63536;SDS011;49686;51.880;5.632;2023-05-14T02:58:14;24.35;;;15.38;;
63536;SDS011;49686;51.880;5.632;2023-05-14T03:00:41;18.83;;;14.57;;
63536;SDS011;49686;51.880;5.632;2023-05-14T03:03:08;21.15;;;16.80;;
63536;SDS011;49686;51.880;5.632;2023-05-14T03:05:40;24.23;;;16.20;;
63536;SDS011;49686;51.880;5.632;2023-05-14T03:08:06;24.33;;;16.40;;
63536;SDS011;49686;51.880;5.632;2023-05-14T03:10:33;23.48;;;14.82;;
63536;SDS011;49686;51.880;5.632;2023-05-14T03:13:00;21.50;;;16.23;;
63536;SDS011;49686;51.880;5.632;2023-05-14T03:15:32;22.00;;;15.75;;
63536;SDS011;49686;51.880;5.632;2023-05-14T03:17:59;21.67;;;16.88;;
63536;SDS011;49686;51.880;5.632;2023-05-14T03:20:26;24.90;;;17.50;;
63536;SDS011;49686;51.880;5.632;2023-05-14T03:22:54;24.55;;;16.58;;
63536;SDS011;49686;51.880;5.632;2023-05-14T03:25:21;20.70;;;15.35;;
63536;SDS011;49686;51.880;5.632;2023-05-14T03:27:49;23.50;;;14.77;;
63536;SDS011;49686;51.880;5.632;2023-05-14T03:30:16;21.47;;;15.90;;
63536;SDS011;49686;51.880;5.632;2023-05-14T03:32:43;24.15;;;15.93;;
63536;SDS011;49686;51.880;5.632;2023-05-14T03:35:10;26.77;;;16.00;;
63536;SDS011;49686;51.880;5.632;2023-05-14T03:37:37;25.13;;;16.85;;
63536;SDS011;49686;51.880;5.632;2023-05-14T03:40:06;21.58;;;15.23;;
63536;SDS011;49686;51.880;5.632;2023-05-14T03:42:36;27.98;;;16.23;;
63536;SDS011;49686;51.880;5.632;2023-05-14T03:45:03;25.80;;;15.88;;
63536;SDS011;49686;51.880;5.632;2023-05-14T03:47:36;21.10;;;15.25;;
63536;SDS011;49686;51.880;5.632;2023-05-14T03:50:03;21.90;;;15.60;;
63536;SDS011;49686;51.880;5.632;2023-05-14T03:52:35;19.50;;;13.77;;
63536;SDS011;49686;51.880;5.632;2023-05-14T03:55:02;21.92;;;15.35;;
63536;SDS011;49686;51.880;5.632;2023-05-14T03:57:30;19.10;;;14.60;;
63536;SDS011;49686;51.880;5.632;2023-05-14T03:59:57;22.50;;;14.67;;
63536;SDS011;49686;51.880;5.632;2023-05-14T04:02:24;25.55;;;16.95;;
63536;SDS011;49686;51.880;5.632;2023-05-14T04:04:51;24.38;;;17.27;;
63536;SDS011;49686;51.880;5.632;2023-05-14T04:07:19;25.08;;;15.77;;
63536;SDS011;49686;51.880;5.632;2023-05-14T04:09:46;19.92;;;15.88;;
63536;SDS011;49686;51.880;5.632;2023-05-14T04:12:12;23.42;;;14.75;;
63536;SDS011;49686;51.880;5.632;2023-05-14T04:14:43;22.73;;;14.90;;
63536;SDS011;49686;51.880;5.632;2023-05-14T04:17:13;23.45;;;16.48;;
63536;SDS011;49686;51.880;5.632;2023-05-14T04:19:42;19.63;;;13.48;;
63536;SDS011;49686;51.880;5.632;2023-05-14T04:22:09;20.92;;;13.95;;
63536;SDS011;49686;51.880;5.632;2023-05-14T04:24:36;20.90;;;13.98;;
63536;SDS011;49686;51.880;5.632;2023-05-14T04:27:03;21.13;;;14.30;;
63536;SDS011;49686;51.880;5.632;2023-05-14T04:29:33;20.15;;;14.02;;
63536;SDS011;49686;51.880;5.632;2023-05-14T04:32:03;21.25;;;14.27;;
63536;SDS011;49686;51.880;5.632;2023-05-14T04:34:31;20.92;;;14.70;;
63536;SDS011;49686;51.880;5.632;2023-05-14T04:36:58;23.95;;;15.52;;
63536;SDS011;49686;51.880;5.632;2023-05-14T04:39:24;20.13;;;14.00;;
63536;SDS011;49686;51.880;5.632;2023-05-14T04:41:51;24.83;;;15.10;;
63536;SDS011;49686;51.880;5.632;2023-05-14T04:44:18;23.23;;;16.60;;
63536;SDS011;49686;51.880;5.632;2023-05-14T04:46:45;26.00;;;16.40;;
63536;SDS011;49686;51.880;5.632;2023-05-14T04:49:15;19.80;;;13.68;;
63536;SDS011;49686;51.880;5.632;2023-05-14T04:51:41;20.63;;;14.73;;
63536;SDS011;49686;51.880;5.632;2023-05-14T04:54:08;21.48;;;14.48;;
63536;SDS011;49686;51.880;5.632;2023-05-14T04:56:35;18.90;;;13.88;;
63536;SDS011;49686;51.880;5.632;2023-05-14T04:59:04;19.00;;;12.98;;
63536;SDS011;49686;51.880;5.632;2023-05-14T05:01:36;18.85;;;12.70;;
63536;SDS011;49686;51.880;5.632;2023-05-14T05:04:03;21.23;;;14.23;;
63536;SDS011;49686;51.880;5.632;2023-05-14T05:06:31;17.58;;;12.80;;
63536;SDS011;49686;51.880;5.632;2023-05-14T05:08:58;20.87;;;13.30;;
63536;SDS011;49686;51.880;5.632;2023-05-14T05:11:27;18.55;;;14.85;;
63536;SDS011;49686;51.880;5.632;2023-05-14T05:13:54;20.33;;;14.85;;
63536;SDS011;49686;51.880;5.632;2023-05-14T05:16:21;20.27;;;14.15;;
63536;SDS011;49686;51.880;5.632;2023-05-14T05:18:48;18.23;;;13.82;;
63536;SDS011;49686;51.880;5.632;2023-05-14T05:21:16;16.25;;;11.32;;
63536;SDS011;49686;51.880;5.632;2023-05-14T05:23:45;19.65;;;14.05;;
63536;SDS011;49686;51.880;5.632;2023-05-14T05:26:12;22.20;;;15.15;;
63536;SDS011;49686;51.880;5.632;2023-05-14T05:28:39;19.08;;;13.93;;
63536;SDS011;49686;51.880;5.632;2023-05-14T05:31:05;19.10;;;14.63;;
63536;SDS011;49686;51.880;5.632;2023-05-14T05:33:47;18.10;;;13.45;;
63536;SDS011;49686;51.880;5.632;2023-05-14T05:36:16;20.05;;;14.73;;
63536;SDS011;49686;51.880;5.632;2023-05-14T05:38:42;23.70;;;15.65;;
63536;SDS011;49686;51.880;5.632;2023-05-14T05:41:11;21.92;;;16.08;;
63536;SDS011;49686;51.880;5.632;2023-05-14T05:43:37;19.75;;;14.35;;
63536;SDS011;49686;51.880;5.632;2023-05-14T05:46:09;17.15;;;12.05;;
63536;SDS011;49686;51.880;5.632;2023-05-14T05:48:36;18.25;;;12.95;;
63536;SDS011;49686;51.880;5.632;2023-05-14T05:51:03;17.77;;;12.27;;
63536;SDS011;49686;51.880;5.632;2023-05-14T05:53:33;16.50;;;12.27;;
63536;SDS011;49686;51.880;5.632;2023-05-14T05:56:00;15.52;;;11.80;;
63536;SDS011;49686;51.880;5.632;2023-05-14T05:58:28;16.48;;;12.70;;
63536;SDS011;49686;51.880;5.632;2023-05-14T06:00:55;14.32;;;11.40;;
63536;SDS011;49686;51.880;5.632;2023-05-14T06:03:22;14.10;;;10.68;;
63536;SDS011;49686;51.880;5.632;2023-05-14T06:05:49;11.73;;;10.43;;
63536;SDS011;49686;51.880;5.632;2023-05-14T06:08:16;15.13;;;11.23;;
63536;SDS011;49686;51.880;5.632;2023-05-14T06:10:43;15.15;;;11.27;;
63536;SDS011;49686;51.880;5.632;2023-05-14T06:13:12;14.75;;;11.20;;
63536;SDS011;49686;51.880;5.632;2023-05-14T06:15:40;18.52;;;11.70;;
63536;SDS011;49686;51.880;5.632;2023-05-14T06:18:09;14.98;;;11.38;;
63536;SDS011;49686;51.880;5.632;2023-05-14T06:20:36;12.95;;;11.23;;
63536;SDS011;49686;51.880;5.632;2023-05-14T06:23:06;15.07;;;11.02;;
63536;SDS011;49686;51.880;5.632;2023-05-14T06:25:33;14.98;;;11.57;;
63536;SDS011;49686;51.880;5.632;2023-05-14T06:28:00;16.42;;;11.70;;
63536;SDS011;49686;51.880;5.632;2023-05-14T06:30:26;17.33;;;12.07;;
63536;SDS011;49686;51.880;5.632;2023-05-14T06:32:55;16.85;;;13.13;;
63536;SDS011;49686;51.880;5.632;2023-05-14T06:35:24;20.35;;;13.02;;
63536;SDS011;49686;51.880;5.632;2023-05-14T06:37:51;17.15;;;12.23;;
63536;SDS011;49686;51.880;5.632;2023-05-14T06:40:18;17.30;;;11.55;;
63536;SDS011;49686;51.880;5.632;2023-05-14T06:42:45;18.15;;;12.23;;
63536;SDS011;49686;51.880;5.632;2023-05-14T06:45:12;18.60;;;12.00;;
63536;SDS011;49686;51.880;5.632;2023-05-14T06:47:39;17.60;;;12.02;;
63536;SDS011;49686;51.880;5.632;2023-05-14T06:50:07;17.77;;;12.25;;
63536;SDS011;49686;51.880;5.632;2023-05-14T06:52:36;14.98;;;11.00;;
63536;SDS011;49686;51.880;5.632;2023-05-14T06:55:06;15.70;;;11.02;;
63536;SDS011;49686;51.880;5.632;2023-05-14T06:57:34;15.60;;;10.52;;
63536;SDS011;49686;51.880;5.632;2023-05-14T07:00:04;12.13;;;10.10;;
63536;SDS011;49686;51.880;5.632;2023-05-14T07:02:32;15.73;;;11.00;;
63536;SDS011;49686;51.880;5.632;2023-05-14T07:04:59;15.77;;;11.02;;
63536;SDS011;49686;51.880;5.632;2023-05-14T07:07:27;15.73;;;11.25;;
63536;SDS011;49686;51.880;5.632;2023-05-14T07:09:54;12.45;;;9.73;;
63536;SDS011;49686;51.880;5.632;2023-05-14T07:12:21;13.95;;;10.38;;
63536;SDS011;49686;51.880;5.632;2023-05-14T07:14:48;13.48;;;10.70;;
63536;SDS011;49686;51.880;5.632;2023-05-14T07:17:15;15.07;;;10.50;;
63536;SDS011;49686;51.880;5.632;2023-05-14T07:19:42;14.45;;;10.85;;
63536;SDS011;49686;51.880;5.632;2023-05-14T07:22:12;15.57;;;10.57;;
63536;SDS011;49686;51.880;5.632;2023-05-14T07:24:40;14.88;;;10.75;;
63536;SDS011;49686;51.880;5.632;2023-05-14T07:27:08;12.43;;;9.85;;
63536;SDS011;49686;51.880;5.632;2023-05-14T07:29:34;12.85;;;10.13;;
63536;SDS011;49686;51.880;5.632;2023-05-14T07:32:01;12.50;;;9.45;;
63536;SDS011;49686;51.880;5.632;2023-05-14T07:34:31;14.15;;;10.07;;
63536;SDS011;49686;51.880;5.632;2023-05-14T07:36:57;13.45;;;9.68;;
63536;SDS011;49686;51.880;5.632;2023-05-14T07:41:54;13.20;;;10.02;;
63536;SDS011;49686;51.880;5.632;2023-05-14T07:44:21;13.00;;;9.82;;
63536;SDS011;49686;51.880;5.632;2023-05-14T07:46:48;15.60;;;10.38;;
63536;SDS011;49686;51.880;5.632;2023-05-14T07:49:15;12.25;;;9.40;;
63536;SDS011;49686;51.880;5.632;2023-05-14T07:51:42;14.43;;;9.25;;
63536;SDS011;49686;51.880;5.632;2023-05-14T07:54:09;12.57;;;9.48;;
63536;SDS011;49686;51.880;5.632;2023-05-14T07:56:35;11.60;;;9.98;;
63536;SDS011;49686;51.880;5.632;2023-05-14T07:59:04;14.45;;;9.77;;
63536;SDS011;49686;51.880;5.632;2023-05-14T08:01:30;14.73;;;9.48;;
63536;SDS011;49686;51.880;5.632;2023-05-14T08:03:57;14.23;;;9.45;;
63536;SDS011;49686;51.880;5.632;2023-05-14T08:06:24;14.65;;;9.23;;
63536;SDS011;49686;51.880;5.632;2023-05-14T08:08:51;13.57;;;9.45;;
63536;SDS011;49686;51.880;5.632;2023-05-14T08:11:18;11.40;;;8.18;;
63536;SDS011;49686;51.880;5.632;2023-05-14T08:13:45;10.32;;;8.77;;
63536;SDS011;49686;51.880;5.632;2023-05-14T08:16:15;10.07;;;8.57;;
63536;SDS011;49686;51.880;5.632;2023-05-14T08:18:42;11.05;;;8.70;;
63536;SDS011;49686;51.880;5.632;2023-05-14T08:21:11;11.38;;;9.60;;
63536;SDS011;49686;51.880;5.632;2023-05-14T08:23:39;9.25;;;8.15;;
63536;SDS011;49686;51.880;5.632;2023-05-14T08:26:06;10.65;;;9.10;;
63536;SDS011;49686;51.880;5.632;2023-05-14T08:28:34;11.52;;;8.98;;
63536;SDS011;49686;51.880;5.632;2023-05-14T08:31:01;17.38;;;9.50;;
63536;SDS011;49686;51.880;5.632;2023-05-14T08:33:29;12.10;;;9.02;;
63536;SDS011;49686;51.880;5.632;2023-05-14T08:35:58;11.07;;;8.90;;
63536;SDS011;49686;51.880;5.632;2023-05-14T08:38:25;9.75;;;8.70;;
63536;SDS011;49686;51.880;5.632;2023-05-14T08:40:55;12.05;;;8.57;;
63536;SDS011;49686;51.880;5.632;2023-05-14T08:43:26;14.20;;;9.43;;
63536;SDS011;49686;51.880;5.632;2023-05-14T08:46:00;12.65;;;9.30;;
63536;SDS011;49686;51.880;5.632;2023-05-14T08:48:32;10.73;;;9.13;;
63536;SDS011;49686;51.880;5.632;2023-05-14T08:51:00;10.90;;;8.73;;
63536;SDS011;49686;51.880;5.632;2023-05-14T08:53:27;15.65;;;9.55;;
63536;SDS011;49686;51.880;5.632;2023-05-14T08:55:55;13.45;;;9.40;;
63536;SDS011;49686;51.880;5.632;2023-05-14T08:58:23;13.60;;;8.50;;
63536;SDS011;49686;51.880;5.632;2023-05-14T09:00:50;11.88;;;8.98;;
63536;SDS011;49686;51.880;5.632;2023-05-14T09:05:47;11.85;;;8.05;;
63536;SDS011;49686;51.880;5.632;2023-05-14T09:08:16;9.82;;;8.23;;
63536;SDS011;49686;51.880;5.632;2023-05-14T09:10:49;12.10;;;8.07;;
63536;SDS011;49686;51.880;5.632;2023-05-14T09:13:16;12.60;;;8.18;;
63536;SDS011;49686;51.880;5.632;2023-05-14T09:15:42;12.50;;;8.02;;
63536;SDS011;49686;51.880;5.632;2023-05-14T09:18:11;8.68;;;7.35;;
63536;SDS011;49686;51.880;5.632;2023-05-14T09:20:43;12.80;;;8.20;;
63536;SDS011;49686;51.880;5.632;2023-05-14T09:23:13;9.57;;;8.20;;
63536;SDS011;49686;51.880;5.632;2023-05-14T09:25:40;11.55;;;7.65;;
63536;SDS011;49686;51.880;5.632;2023-05-14T09:28:10;12.88;;;7.82;;
63536;SDS011;49686;51.880;5.632;2023-05-14T09:30:37;10.77;;;7.90;;
63536;SDS011;49686;51.880;5.632;2023-05-14T09:33:04;10.95;;;7.43;;
63536;SDS011;49686;51.880;5.632;2023-05-14T09:35:31;12.40;;;7.93;;
63536;SDS011;49686;51.880;5.632;2023-05-14T09:37:57;9.63;;;7.60;;
63536;SDS011;49686;51.880;5.632;2023-05-14T09:40:26;13.15;;;7.75;;
63536;SDS011;49686;51.880;5.632;2023-05-14T09:42:53;12.75;;;7.43;;
63536;SDS011;49686;51.880;5.632;2023-05-14T09:45:22;10.77;;;7.43;;
63536;SDS011;49686;51.880;5.632;2023-05-14T09:47:49;10.50;;;7.63;;
63536;SDS011;49686;51.880;5.632;2023-05-14T09:50:16;10.38;;;7.45;;
63536;SDS011;49686;51.880;5.632;2023-05-14T09:52:42;12.38;;;7.55;;
63536;SDS011;49686;51.880;5.632;2023-05-14T09:55:12;9.30;;;8.02;;
63536;SDS011;49686;51.880;5.632;2023-05-14T09:57:40;9.68;;;6.80;;
63536;SDS011;49686;51.880;5.632;2023-05-14T10:00:08;10.52;;;7.80;;
63536;SDS011;49686;51.880;5.632;2023-05-14T10:02:35;11.77;;;7.97;;
63536;SDS011;49686;51.880;5.632;2023-05-14T10:05:04;10.77;;;7.15;;
63536;SDS011;49686;51.880;5.632;2023-05-14T10:07:33;9.00;;;7.45;;
63536;SDS011;49686;51.880;5.632;2023-05-14T10:10:05;10.98;;;7.50;;
63536;SDS011;49686;51.880;5.632;2023-05-14T10:12:34;11.38;;;7.35;;
63536;SDS011;49686;51.880;5.632;2023-05-14T10:15:08;9.60;;;7.55;;
63536;SDS011;49686;51.880;5.632;2023-05-14T10:17:40;10.63;;;7.47;;
63536;SDS011;49686;51.880;5.632;2023-05-14T10:20:13;9.95;;;6.75;;
63536;SDS011;49686;51.880;5.632;2023-05-14T10:22:41;8.87;;;6.90;;
63536;SDS011;49686;51.880;5.632;2023-05-14T10:25:08;9.60;;;6.45;;
63536;SDS011;49686;51.880;5.632;2023-05-14T10:27:35;12.98;;;6.97;;
63536;SDS011;49686;51.880;5.632;2023-05-14T10:30:09;8.13;;;6.32;;
63536;SDS011;49686;51.880;5.632;2023-05-14T10:32:36;11.98;;;6.53;;
63536;SDS011;49686;51.880;5.632;2023-05-14T10:35:14;12.15;;;6.65;;
63536;SDS011;49686;51.880;5.632;2023-05-14T10:37:42;11.40;;;6.97;;
63536;SDS011;49686;51.880;5.632;2023-05-14T10:40:10;8.88;;;6.30;;
63536;SDS011;49686;51.880;5.632;2023-05-14T10:42:41;10.98;;;6.57;;
63536;SDS011;49686;51.880;5.632;2023-05-14T10:45:10;9.07;;;6.50;;
63536;SDS011;49686;51.880;5.632;2023-05-14T10:47:40;9.73;;;6.45;;
63536;SDS011;49686;51.880;5.632;2023-05-14T10:50:10;9.45;;;6.32;;
63536;SDS011;49686;51.880;5.632;2023-05-14T10:52:39;6.40;;;5.70;;
63536;SDS011;49686;51.880;5.632;2023-05-14T10:55:07;8.27;;;5.70;;
63536;SDS011;49686;51.880;5.632;2023-05-14T10:57:35;9.37;;;6.20;;
63536;SDS011;49686;51.880;5.632;2023-05-14T11:02:34;8.32;;;5.40;;
63536;SDS011;49686;51.880;5.632;2023-05-14T11:05:03;7.63;;;5.68;;
63536;SDS011;49686;51.880;5.632;2023-05-14T11:07:32;7.35;;;4.93;;
63536;SDS011;49686;51.880;5.632;2023-05-14T11:10:00;6.80;;;5.18;;
63536;SDS011;49686;51.880;5.632;2023-05-14T11:12:28;9.13;;;5.35;;
63536;SDS011;49686;51.880;5.632;2023-05-14T11:14:59;7.15;;;4.97;;
63536;SDS011;49686;51.880;5.632;2023-05-14T11:17:27;7.03;;;4.80;;
63536;SDS011;49686;51.880;5.632;2023-05-14T11:19:56;10.13;;;5.28;;
63536;SDS011;49686;51.880;5.632;2023-05-14T11:22:24;6.90;;;4.80;;
63536;SDS011;49686;51.880;5.632;2023-05-14T11:24:51;8.10;;;4.85;;
63536;SDS011;49686;51.880;5.632;2023-05-14T11:27:18;7.10;;;5.15;;
63536;SDS011;49686;51.880;5.632;2023-05-14T11:29:47;7.88;;;4.95;;
63536;SDS011;49686;51.880;5.632;2023-05-14T11:32:15;8.90;;;5.18;;
63536;SDS011;49686;51.880;5.632;2023-05-14T11:34:43;6.47;;;4.72;;
63536;SDS011;49686;51.880;5.632;2023-05-14T11:37:13;7.43;;;4.63;;
63536;SDS011;49686;51.880;5.632;2023-05-14T11:39:45;6.65;;;3.83;;
63536;SDS011;49686;51.880;5.632;2023-05-14T11:42:13;8.65;;;4.55;;
63536;SDS011;49686;51.880;5.632;2023-05-14T11:44:40;9.35;;;4.28;;
63536;SDS011;49686;51.880;5.632;2023-05-14T11:47:09;5.18;;;3.85;;
63536;SDS011;49686;51.880;5.632;2023-05-14T11:49:36;10.02;;;4.22;;
63536;SDS011;49686;51.880;5.632;2023-05-14T11:52:06;5.82;;;3.83;;
63536;SDS011;49686;51.880;5.632;2023-05-14T11:54:35;6.35;;;3.97;;
63536;SDS011;49686;51.880;5.632;2023-05-14T11:57:06;7.70;;;4.43;;
63536;SDS011;49686;51.880;5.632;2023-05-14T11:59:34;6.35;;;4.30;;
63536;SDS011;49686;51.880;5.632;2023-05-14T12:02:02;6.18;;;4.30;;
63536;SDS011;49686;51.880;5.632;2023-05-14T12:04:36;7.65;;;4.20;;
63536;SDS011;49686;51.880;5.632;2023-05-14T12:07:07;8.68;;;4.47;;
63536;SDS011;49686;51.880;5.632;2023-05-14T12:09:37;8.50;;;4.80;;
63536;SDS011;49686;51.880;5.632;2023-05-14T12:12:08;7.80;;;5.53;;
63536;SDS011;49686;51.880;5.632;2023-05-14T12:14:36;7.72;;;4.97;;
63536;SDS011;49686;51.880;5.632;2023-05-14T12:17:08;11.32;;;5.18;;
63536;SDS011;49686;51.880;5.632;2023-05-14T12:19:38;7.20;;;4.82;;
63536;SDS011;49686;51.880;5.632;2023-05-14T12:22:09;7.45;;;4.82;;
63536;SDS011;49686;51.880;5.632;2023-05-14T12:24:38;7.93;;;4.72;;
63536;SDS011;49686;51.880;5.632;2023-05-14T12:27:08;8.45;;;4.15;;
63536;SDS011;49686;51.880;5.632;2023-05-14T12:29:35;6.40;;;4.28;;
63536;SDS011;49686;51.880;5.632;2023-05-14T12:32:06;6.10;;;3.92;;
63536;SDS011;49686;51.880;5.632;2023-05-14T12:34:34;7.85;;;3.90;;
63536;SDS011;49686;51.880;5.632;2023-05-14T12:37:03;6.63;;;4.20;;
63536;SDS011;49686;51.880;5.632;2023-05-14T12:39:31;5.13;;;4.53;;
63536;SDS011;49686;51.880;5.632;2023-05-14T12:42:00;5.85;;;3.78;;
63536;SDS011;49686;51.880;5.632;2023-05-14T12:44:27;8.25;;;3.70;;
63536;SDS011;49686;51.880;5.632;2023-05-14T12:46:54;8.05;;;4.00;;
63536;SDS011;49686;51.880;5.632;2023-05-14T12:49:21;5.97;;;4.10;;
63536;SDS011;49686;51.880;5.632;2023-05-14T12:51:48;6.35;;;3.83;;
63536;SDS011;49686;51.880;5.632;2023-05-14T12:54:19;6.35;;;4.22;;
63536;SDS011;49686;51.880;5.632;2023-05-14T12:56:46;3.78;;;3.38;;
63536;SDS011;49686;51.880;5.632;2023-05-14T12:59:14;7.43;;;3.50;;
63536;SDS011;49686;51.880;5.632;2023-05-14T13:01:47;5.60;;;4.22;;
63536;SDS011;49686;51.880;5.632;2023-05-14T13:04:14;7.18;;;3.92;;
63536;SDS011;49686;51.880;5.632;2023-05-14T13:06:41;6.60;;;3.80;;
63536;SDS011;49686;51.880;5.632;2023-05-14T13:09:10;5.13;;;3.45;;
63536;SDS011;49686;51.880;5.632;2023-05-14T13:11:37;5.25;;;3.22;;
63536;SDS011;49686;51.880;5.632;2023-05-14T13:14:04;6.20;;;3.38;;
63536;SDS011;49686;51.880;5.632;2023-05-14T13:16:32;6.72;;;3.50;;
63536;SDS011;49686;51.880;5.632;2023-05-14T13:19:01;6.28;;;3.40;;
63536;SDS011;49686;51.880;5.632;2023-05-14T13:21:28;5.72;;;3.08;;
63536;SDS011;49686;51.880;5.632;2023-05-14T13:23:54;4.80;;;2.85;;
63536;SDS011;49686;51.880;5.632;2023-05-14T13:26:21;6.78;;;2.92;;
63536;SDS011;49686;51.880;5.632;2023-05-14T13:28:48;7.85;;;3.25;;
63536;SDS011;49686;51.880;5.632;2023-05-14T13:31:15;6.15;;;3.47;;
63536;SDS011;49686;51.880;5.632;2023-05-14T13:33:43;4.68;;;3.00;;
63536;SDS011;49686;51.880;5.632;2023-05-14T13:36:15;6.88;;;3.30;;
63536;SDS011;49686;51.880;5.632;2023-05-14T13:38:42;6.68;;;2.92;;
63536;SDS011;49686;51.880;5.632;2023-05-14T13:41:09;6.63;;;3.45;;
63536;SDS011;49686;51.880;5.632;2023-05-14T13:43:36;6.15;;;3.20;;
63536;SDS011;49686;51.880;5.632;2023-05-14T13:46:04;5.70;;;2.75;;
63536;SDS011;49686;51.880;5.632;2023-05-14T13:48:31;8.35;;;3.10;;
63536;SDS011;49686;51.880;5.632;2023-05-14T13:50:59;5.88;;;3.33;;
63536;SDS011;49686;51.880;5.632;2023-05-14T13:53:26;9.75;;;4.40;;
63536;SDS011;49686;51.880;5.632;2023-05-14T13:55:53;7.00;;;4.55;;
63536;SDS011;49686;51.880;5.632;2023-05-14T13:58:23;5.43;;;4.57;;
63536;SDS011;49686;51.880;5.632;2023-05-14T14:00:50;7.70;;;4.28;;
63536;SDS011;49686;51.880;5.632;2023-05-14T14:03:17;4.72;;;3.95;;
63536;SDS011;49686;51.880;5.632;2023-05-14T14:05:44;5.63;;;4.13;;
63536;SDS011;49686;51.880;5.632;2023-05-14T14:08:12;5.53;;;3.80;;
63536;SDS011;49686;51.880;5.632;2023-05-14T14:10:49;6.45;;;4.20;;
63536;SDS011;49686;51.880;5.632;2023-05-14T14:13:18;5.10;;;3.83;;
63536;SDS011;49686;51.880;5.632;2023-05-14T14:18:11;9.65;;;3.83;;
63536;SDS011;49686;51.880;5.632;2023-05-14T14:20:38;4.90;;;3.60;;
63536;SDS011;49686;51.880;5.632;2023-05-14T14:23:05;4.40;;;3.47;;
63536;SDS011;49686;51.880;5.632;2023-05-14T14:25:41;5.22;;;3.85;;
63536;SDS011;49686;51.880;5.632;2023-05-14T14:28:11;4.93;;;3.40;;
63536;SDS011;49686;51.880;5.632;2023-05-14T14:30:38;7.85;;;3.80;;
63536;SDS011;49686;51.880;5.632;2023-05-14T14:33:04;4.75;;;3.50;;
63536;SDS011;49686;51.880;5.632;2023-05-14T14:35:31;6.15;;;3.60;;
63536;SDS011;49686;51.880;5.632;2023-05-14T14:37:58;10.25;;;4.22;;
63536;SDS011;49686;51.880;5.632;2023-05-14T14:40:25;5.93;;;3.80;;
63536;SDS011;49686;51.880;5.632;2023-05-14T14:42:53;6.13;;;4.15;;
63536;SDS011;49686;51.880;5.632;2023-05-14T14:45:20;7.25;;;3.97;;
63536;SDS011;49686;51.880;5.632;2023-05-14T14:47:47;7.53;;;4.80;;
63536;SDS011;49686;51.880;5.632;2023-05-14T14:50:14;9.95;;;4.15;;
63536;SDS011;49686;51.880;5.632;2023-05-14T14:52:41;4.78;;;4.03;;
63536;SDS011;49686;51.880;5.632;2023-05-14T14:55:11;5.85;;;3.85;;